sensor_id;sensor_type;location;lat;lon;timestamp;P1;durP1;ratioP1;P2;durP2;ratioP2
49061;SDS011;34873;49.142;9.118;2022-08-01T00:00:38;5.68;;;1.30;;
49061;SDS011;34873;49.142;9.118;2022-08-01T00:03:04;2.22;;;1.60;;
49061;SDS011;34873;49.142;9.118;2022-08-01T00:05:29;2.72;;;1.40;;
49061;SDS011;34873;49.142;9.118;2022-08-01T00:07:55;1.92;;;1.48;;
49061;SDS011;34873;49.142;9.118;2022-08-01T00:10:20;1.88;;;1.42;;
49061;SDS011;34873;49.142;9.118;2022-08-01T00:12:50;2.58;;;1.52;;
49061;SDS011;34873;49.142;9.118;2022-08-01T00:15:16;3.03;;;1.33;;
49061;SDS011;34873;49.142;9.118;2022-08-01T00:17:46;2.72;;;1.30;;
49061;SDS011;34873;49.142;9.118;2022-08-01T00:20:12;2.50;;;1.25;;
49061;SDS011;34873;49.142;9.118;2022-08-01T00:22:39;4.85;;;1.83;;
49061;SDS011;34873;49.142;9.118;2022-08-01T00:25:07;1.35;;;1.25;;
49061;SDS011;34873;49.142;9.118;2022-08-01T00:27:33;1.65;;;1.25;;
49061;SDS011;34873;49.142;9.118;2022-08-01T00:29:58;1.85;;;1.25;;
49061;SDS011;34873;49.142;9.118;2022-08-01T00:32:24;1.55;;;1.20;;
49061;SDS011;34873;49.142;9.118;2022-08-01T00:34:50;2.25;;;1.40;;
49061;SDS011;34873;49.142;9.118;2022-08-01T00:37:15;4.65;;;1.23;;
49061;SDS011;34873;49.142;9.118;2022-08-01T00:39:43;4.80;;;1.48;;
49061;SDS011;34873;49.142;9.118;2022-08-01T00:42:11;1.95;;;0.90;;
49061;SDS011;34873;49.142;9.118;2022-08-01T00:44:37;1.30;;;1.20;;
49061;SDS011;34873;49.142;9.118;2022-08-01T00:47:03;1.70;;;1.35;;
49061;SDS011;34873;49.142;9.118;2022-08-01T00:49:29;1.30;;;1.20;;
49061;SDS011;34873;49.142;9.118;2022-08-01T00:51:55;1.35;;;1.20;;
49061;SDS011;34873;49.142;9.118;2022-08-01T00:54:21;1.38;;;1.27;;
49061;SDS011;34873;49.142;9.118;2022-08-01T00:56:48;1.17;;;1.05;;
49061;SDS011;34873;49.142;9.118;2022-08-01T00:59:13;1.15;;;1.05;;
49061;SDS011;34873;49.142;9.118;2022-08-01T01:01:39;1.48;;;1.20;;
49061;SDS011;34873;49.142;9.118;2022-08-01T01:04:09;0.88;;;0.88;;
49061;SDS011;34873;49.142;9.118;2022-08-01T01:06:39;2.90;;;1.20;;
49061;SDS011;34873;49.142;9.118;2022-08-01T01:11:37;1.85;;;0.85;;
49061;SDS011;34873;49.142;9.118;2022-08-01T01:14:10;1.10;;;1.00;;
49061;SDS011;34873;49.142;9.118;2022-08-01T01:16:50;1.65;;;1.15;;
49061;SDS011;34873;49.142;9.118;2022-08-01T01:19:21;1.73;;;0.90;;
49061;SDS011;34873;49.142;9.118;2022-08-01T01:22:00;1.73;;;1.10;;
49061;SDS011;34873;49.142;9.118;2022-08-01T01:27:47;1.30;;;0.77;;
49061;SDS011;34873;49.142;9.118;2022-08-01T01:30:16;1.15;;;0.73;;
49061;SDS011;34873;49.142;9.118;2022-08-01T01:32:43;3.42;;;1.10;;
49061;SDS011;34873;49.142;9.118;2022-08-01T01:35:14;3.50;;;0.98;;
49061;SDS011;34873;49.142;9.118;2022-08-01T01:37:41;1.10;;;0.80;;
49061;SDS011;34873;49.142;9.118;2022-08-01T01:40:09;1.42;;;0.80;;
49061;SDS011;34873;49.142;9.118;2022-08-01T01:42:36;1.48;;;1.17;;
49061;SDS011;34873;49.142;9.118;2022-08-01T01:45:03;1.45;;;1.00;;
49061;SDS011;34873;49.142;9.118;2022-08-01T01:47:31;1.17;;;0.90;;
49061;SDS011;34873;49.142;9.118;2022-08-01T01:49:57;2.22;;;1.23;;
49061;SDS011;34873;49.142;9.118;2022-08-01T01:52:27;1.20;;;0.73;;
49061;SDS011;34873;49.142;9.118;2022-08-01T01:54:55;2.22;;;1.10;;
49061;SDS011;34873;49.142;9.118;2022-08-01T01:57:21;1.52;;;0.90;;
49061;SDS011;34873;49.142;9.118;2022-08-01T01:59:48;0.75;;;0.70;;
49061;SDS011;34873;49.142;9.118;2022-08-01T02:02:15;0.63;;;0.63;;
49061;SDS011;34873;49.142;9.118;2022-08-01T02:04:44;2.33;;;0.60;;
49061;SDS011;34873;49.142;9.118;2022-08-01T02:07:12;2.55;;;0.73;;
49061;SDS011;34873;49.142;9.118;2022-08-01T02:09:41;3.58;;;0.63;;
49061;SDS011;34873;49.142;9.118;2022-08-01T02:12:07;0.55;;;0.50;;
49061;SDS011;34873;49.142;9.118;2022-08-01T02:14:35;2.35;;;0.77;;
49061;SDS011;34873;49.142;9.118;2022-08-01T02:17:01;0.73;;;0.60;;
49061;SDS011;34873;49.142;9.118;2022-08-01T02:19:29;1.13;;;1.02;;
49061;SDS011;34873;49.142;9.118;2022-08-01T02:21:55;1.60;;;0.85;;
49061;SDS011;34873;49.142;9.118;2022-08-01T02:27:10;2.42;;;0.70;;
49061;SDS011;34873;49.142;9.118;2022-08-01T02:29:41;0.55;;;0.52;;
49061;SDS011;34873;49.142;9.118;2022-08-01T02:32:10;1.90;;;0.50;;
49061;SDS011;34873;49.142;9.118;2022-08-01T02:34:37;3.20;;;0.65;;
49061;SDS011;34873;49.142;9.118;2022-08-01T02:37:06;1.55;;;0.70;;
49061;SDS011;34873;49.142;9.118;2022-08-01T02:39:31;3.05;;;0.43;;
49061;SDS011;34873;49.142;9.118;2022-08-01T02:42:00;1.63;;;0.75;;
49061;SDS011;34873;49.142;9.118;2022-08-01T02:44:31;1.40;;;0.50;;
49061;SDS011;34873;49.142;9.118;2022-08-01T02:47:01;1.27;;;0.70;;
49061;SDS011;34873;49.142;9.118;2022-08-01T02:49:31;2.42;;;1.02;;
49061;SDS011;34873;49.142;9.118;2022-08-01T02:52:00;1.20;;;0.57;;
49061;SDS011;34873;49.142;9.118;2022-08-01T02:54:26;1.05;;;0.68;;
49061;SDS011;34873;49.142;9.118;2022-08-01T02:56:54;1.63;;;0.65;;
49061;SDS011;34873;49.142;9.118;2022-08-01T02:59:23;0.73;;;0.70;;
49061;SDS011;34873;49.142;9.118;2022-08-01T03:01:53;3.38;;;0.50;;
49061;SDS011;34873;49.142;9.118;2022-08-01T03:04:19;2.30;;;0.60;;
49061;SDS011;34873;49.142;9.118;2022-08-01T03:06:47;2.20;;;0.52;;
49061;SDS011;34873;49.142;9.118;2022-08-01T03:09:13;1.88;;;0.30;;
49061;SDS011;34873;49.142;9.118;2022-08-01T03:11:40;1.75;;;0.50;;
49061;SDS011;34873;49.142;9.118;2022-08-01T03:14:07;0.98;;;0.50;;
49061;SDS011;34873;49.142;9.118;2022-08-01T03:16:33;3.05;;;0.60;;
49061;SDS011;34873;49.142;9.118;2022-08-01T03:19:03;0.70;;;0.70;;
49061;SDS011;34873;49.142;9.118;2022-08-01T03:21:33;1.83;;;1.15;;
49061;SDS011;34873;49.142;9.118;2022-08-01T03:23:59;1.50;;;0.90;;
49061;SDS011;34873;49.142;9.118;2022-08-01T03:26:27;1.08;;;0.60;;
49061;SDS011;34873;49.142;9.118;2022-08-01T03:28:55;2.35;;;1.35;;
49061;SDS011;34873;49.142;9.118;2022-08-01T03:31:22;1.27;;;1.13;;
49061;SDS011;34873;49.142;9.118;2022-08-01T03:33:50;3.05;;;0.60;;
49061;SDS011;34873;49.142;9.118;2022-08-01T03:36:18;2.15;;;1.00;;
49061;SDS011;34873;49.142;9.118;2022-08-01T03:38:48;2.25;;;0.47;;
49061;SDS011;34873;49.142;9.118;2022-08-01T03:41:15;0.70;;;0.70;;
49061;SDS011;34873;49.142;9.118;2022-08-01T03:43:55;3.65;;;0.70;;
49061;SDS011;34873;49.142;9.118;2022-08-01T03:46:26;0.80;;;0.60;;
49061;SDS011;34873;49.142;9.118;2022-08-01T03:48:55;1.63;;;0.52;;
49061;SDS011;34873;49.142;9.118;2022-08-01T03:51:24;1.80;;;0.82;;
49061;SDS011;34873;49.142;9.118;2022-08-01T03:53:55;2.00;;;0.77;;
49061;SDS011;34873;49.142;9.118;2022-08-01T03:56:23;1.08;;;0.70;;
49061;SDS011;34873;49.142;9.118;2022-08-01T03:58:49;1.67;;;0.70;;
49061;SDS011;34873;49.142;9.118;2022-08-01T04:01:15;0.68;;;0.50;;
49061;SDS011;34873;49.142;9.118;2022-08-01T04:03:41;1.38;;;0.50;;
49061;SDS011;34873;49.142;9.118;2022-08-01T04:06:09;1.50;;;0.60;;
49061;SDS011;34873;49.142;9.118;2022-08-01T04:08:38;1.73;;;0.60;;
49061;SDS011;34873;49.142;9.118;2022-08-01T04:11:05;2.38;;;0.70;;
49061;SDS011;34873;49.142;9.118;2022-08-01T04:13:31;0.90;;;0.57;;
49061;SDS011;34873;49.142;9.118;2022-08-01T04:15:59;1.02;;;0.50;;
49061;SDS011;34873;49.142;9.118;2022-08-01T04:18:25;1.63;;;0.57;;
49061;SDS011;34873;49.142;9.118;2022-08-01T04:20:53;0.82;;;0.52;;
49061;SDS011;34873;49.142;9.118;2022-08-01T04:23:20;1.00;;;0.40;;
49061;SDS011;34873;49.142;9.118;2022-08-01T04:25:47;2.83;;;1.05;;
49061;SDS011;34873;49.142;9.118;2022-08-01T04:28:18;2.17;;;0.77;;
49061;SDS011;34873;49.142;9.118;2022-08-01T04:30:45;1.08;;;0.70;;
49061;SDS011;34873;49.142;9.118;2022-08-01T04:33:14;1.92;;;1.02;;
49061;SDS011;34873;49.142;9.118;2022-08-01T04:35:42;1.70;;;1.00;;
49061;SDS011;34873;49.142;9.118;2022-08-01T04:38:15;1.63;;;0.90;;
49061;SDS011;34873;49.142;9.118;2022-08-01T04:40:44;1.83;;;1.20;;
49061;SDS011;34873;49.142;9.118;2022-08-01T04:43:14;3.35;;;0.88;;
49061;SDS011;34873;49.142;9.118;2022-08-01T04:45:40;1.70;;;1.08;;
49061;SDS011;34873;49.142;9.118;2022-08-01T04:48:05;2.13;;;1.13;;
49061;SDS011;34873;49.142;9.118;2022-08-01T04:50:32;1.77;;;1.27;;
49061;SDS011;34873;49.142;9.118;2022-08-01T04:52:59;2.63;;;1.30;;
49061;SDS011;34873;49.142;9.118;2022-08-01T04:55:28;1.95;;;1.20;;
49061;SDS011;34873;49.142;9.118;2022-08-01T04:57:56;3.47;;;1.25;;
49061;SDS011;34873;49.142;9.118;2022-08-01T05:00:21;2.97;;;1.30;;
49061;SDS011;34873;49.142;9.118;2022-08-01T05:02:49;1.27;;;1.00;;
49061;SDS011;34873;49.142;9.118;2022-08-01T05:05:14;2.42;;;1.52;;
49061;SDS011;34873;49.142;9.118;2022-08-01T05:07:42;1.45;;;1.05;;
49061;SDS011;34873;49.142;9.118;2022-08-01T05:10:08;0.88;;;0.70;;
49061;SDS011;34873;49.142;9.118;2022-08-01T05:12:36;1.33;;;0.88;;
49061;SDS011;34873;49.142;9.118;2022-08-01T05:15:01;1.48;;;0.90;;
49061;SDS011;34873;49.142;9.118;2022-08-01T05:17:27;1.95;;;0.93;;
49061;SDS011;34873;49.142;9.118;2022-08-01T05:19:55;4.55;;;0.98;;
49061;SDS011;34873;49.142;9.118;2022-08-01T05:22:20;1.90;;;0.90;;
49061;SDS011;34873;49.142;9.118;2022-08-01T05:24:47;4.88;;;0.90;;
49061;SDS011;34873;49.142;9.118;2022-08-01T05:27:12;2.72;;;0.98;;
49061;SDS011;34873;49.142;9.118;2022-08-01T05:29:38;3.05;;;1.02;;
49061;SDS011;34873;49.142;9.118;2022-08-01T05:32:04;2.95;;;0.95;;
49061;SDS011;34873;49.142;9.118;2022-08-01T05:34:30;2.20;;;1.08;;
49061;SDS011;34873;49.142;9.118;2022-08-01T05:36:57;1.40;;;1.15;;
49061;SDS011;34873;49.142;9.118;2022-08-01T05:39:23;2.33;;;0.85;;
49061;SDS011;34873;49.142;9.118;2022-08-01T05:41:48;1.10;;;0.77;;
49061;SDS011;34873;49.142;9.118;2022-08-01T05:44:14;2.35;;;0.90;;
49061;SDS011;34873;49.142;9.118;2022-08-01T05:46:40;4.25;;;1.42;;
49061;SDS011;34873;49.142;9.118;2022-08-01T05:49:08;9.18;;;3.30;;
49061;SDS011;34873;49.142;9.118;2022-08-01T05:51:33;12.75;;;1.48;;
49061;SDS011;34873;49.142;9.118;2022-08-01T05:53:59;14.07;;;2.33;;
49061;SDS011;34873;49.142;9.118;2022-08-01T05:56:25;9.45;;;1.98;;
49061;SDS011;34873;49.142;9.118;2022-08-01T05:58:50;7.45;;;2.10;;
49061;SDS011;34873;49.142;9.118;2022-08-01T06:01:18;5.72;;;1.92;;
49061;SDS011;34873;49.142;9.118;2022-08-01T06:03:48;5.25;;;1.83;;
49061;SDS011;34873;49.142;9.118;2022-08-01T06:06:14;10.27;;;2.65;;
49061;SDS011;34873;49.142;9.118;2022-08-01T06:08:41;6.95;;;1.95;;
49061;SDS011;34873;49.142;9.118;2022-08-01T06:11:07;7.80;;;2.42;;
49061;SDS011;34873;49.142;9.118;2022-08-01T06:13:32;6.28;;;1.70;;
49061;SDS011;34873;49.142;9.118;2022-08-01T06:15:58;7.50;;;2.00;;
49061;SDS011;34873;49.142;9.118;2022-08-01T06:18:23;13.10;;;2.88;;
49061;SDS011;34873;49.142;9.118;2022-08-01T06:20:49;5.47;;;1.98;;
49061;SDS011;34873;49.142;9.118;2022-08-01T06:23:17;5.10;;;1.45;;
49061;SDS011;34873;49.142;9.118;2022-08-01T06:25:42;7.93;;;2.30;;
49061;SDS011;34873;49.142;9.118;2022-08-01T06:28:10;6.57;;;2.15;;
49061;SDS011;34873;49.142;9.118;2022-08-01T06:30:37;8.32;;;1.80;;
49061;SDS011;34873;49.142;9.118;2022-08-01T06:33:03;7.88;;;2.35;;
49061;SDS011;34873;49.142;9.118;2022-08-01T06:35:32;7.82;;;1.67;;
49061;SDS011;34873;49.142;9.118;2022-08-01T06:37:57;5.85;;;1.88;;
49061;SDS011;34873;49.142;9.118;2022-08-01T06:40:23;4.32;;;1.80;;
49061;SDS011;34873;49.142;9.118;2022-08-01T06:42:48;4.10;;;1.65;;
49061;SDS011;34873;49.142;9.118;2022-08-01T06:45:14;6.25;;;1.88;;
49061;SDS011;34873;49.142;9.118;2022-08-01T06:47:44;6.28;;;1.52;;
49061;SDS011;34873;49.142;9.118;2022-08-01T06:50:10;6.93;;;2.67;;
49061;SDS011;34873;49.142;9.118;2022-08-01T06:52:36;4.55;;;1.63;;
49061;SDS011;34873;49.142;9.118;2022-08-01T06:55:04;4.03;;;1.42;;
49061;SDS011;34873;49.142;9.118;2022-08-01T06:57:30;4.40;;;1.50;;
49061;SDS011;34873;49.142;9.118;2022-08-01T06:59:55;4.13;;;1.88;;
49061;SDS011;34873;49.142;9.118;2022-08-01T07:02:21;6.45;;;1.58;;
49061;SDS011;34873;49.142;9.118;2022-08-01T07:04:50;3.45;;;1.45;;
49061;SDS011;34873;49.142;9.118;2022-08-01T07:07:17;4.20;;;1.65;;
49061;SDS011;34873;49.142;9.118;2022-08-01T07:09:43;4.63;;;2.08;;
49061;SDS011;34873;49.142;9.118;2022-08-01T07:12:11;3.92;;;1.58;;
49061;SDS011;34873;49.142;9.118;2022-08-01T07:14:36;4.03;;;1.40;;
49061;SDS011;34873;49.142;9.118;2022-08-01T07:17:04;5.15;;;1.20;;
49061;SDS011;34873;49.142;9.118;2022-08-01T07:19:32;6.38;;;1.67;;
49061;SDS011;34873;49.142;9.118;2022-08-01T07:22:00;2.08;;;1.23;;
49061;SDS011;34873;49.142;9.118;2022-08-01T07:24:30;5.85;;;1.60;;
49061;SDS011;34873;49.142;9.118;2022-08-01T07:26:56;3.90;;;1.75;;
49061;SDS011;34873;49.142;9.118;2022-08-01T07:29:25;5.40;;;1.48;;
49061;SDS011;34873;49.142;9.118;2022-08-01T07:31:53;4.22;;;1.70;;
49061;SDS011;34873;49.142;9.118;2022-08-01T07:34:20;4.72;;;1.55;;
49061;SDS011;34873;49.142;9.118;2022-08-01T07:36:48;2.25;;;1.30;;
49061;SDS011;34873;49.142;9.118;2022-08-01T07:39:14;4.32;;;1.45;;
49061;SDS011;34873;49.142;9.118;2022-08-01T07:41:40;4.40;;;1.30;;
49061;SDS011;34873;49.142;9.118;2022-08-01T07:44:05;3.65;;;1.73;;
49061;SDS011;34873;49.142;9.118;2022-08-01T07:46:30;6.97;;;1.55;;
49061;SDS011;34873;49.142;9.118;2022-08-01T07:48:56;2.53;;;1.10;;
49061;SDS011;34873;49.142;9.118;2022-08-01T07:51:26;3.55;;;1.15;;
49061;SDS011;34873;49.142;9.118;2022-08-01T07:53:54;4.43;;;1.83;;
49061;SDS011;34873;49.142;9.118;2022-08-01T07:56:21;2.97;;;1.52;;
49061;SDS011;34873;49.142;9.118;2022-08-01T07:58:49;2.60;;;1.60;;
49061;SDS011;34873;49.142;9.118;2022-08-01T08:01:15;4.50;;;1.33;;
49061;SDS011;34873;49.142;9.118;2022-08-01T08:03:40;5.75;;;1.45;;
49061;SDS011;34873;49.142;9.118;2022-08-01T08:06:06;2.65;;;1.30;;
49061;SDS011;34873;49.142;9.118;2022-08-01T08:08:33;4.43;;;1.63;;
49061;SDS011;34873;49.142;9.118;2022-08-01T08:10:59;5.38;;;1.30;;
49061;SDS011;34873;49.142;9.118;2022-08-01T08:13:30;2.10;;;1.33;;
49061;SDS011;34873;49.142;9.118;2022-08-01T08:15:58;4.47;;;1.40;;
49061;SDS011;34873;49.142;9.118;2022-08-01T08:18:25;5.28;;;1.55;;
49061;SDS011;34873;49.142;9.118;2022-08-01T08:20:51;4.57;;;1.38;;
49061;SDS011;34873;49.142;9.118;2022-08-01T08:23:19;5.13;;;1.42;;
49061;SDS011;34873;49.142;9.118;2022-08-01T08:26:03;3.83;;;1.07;;
49061;SDS011;34873;49.142;9.118;2022-08-01T08:28:31;2.45;;;1.25;;
49061;SDS011;34873;49.142;9.118;2022-08-01T08:30:56;5.40;;;1.70;;
49061;SDS011;34873;49.142;9.118;2022-08-01T08:33:24;5.05;;;1.40;;
49061;SDS011;34873;49.142;9.118;2022-08-01T08:35:49;2.15;;;1.35;;
49061;SDS011;34873;49.142;9.118;2022-08-01T08:38:15;2.50;;;1.20;;
49061;SDS011;34873;49.142;9.118;2022-08-01T08:40:40;3.35;;;1.17;;
49061;SDS011;34873;49.142;9.118;2022-08-01T08:43:08;4.00;;;1.40;;
49061;SDS011;34873;49.142;9.118;2022-08-01T08:45:33;1.90;;;1.17;;
49061;SDS011;34873;49.142;9.118;2022-08-01T08:48:01;6.28;;;1.85;;
49061;SDS011;34873;49.142;9.118;2022-08-01T08:50:27;3.85;;;1.67;;
49061;SDS011;34873;49.142;9.118;2022-08-01T08:52:53;3.33;;;1.52;;
49061;SDS011;34873;49.142;9.118;2022-08-01T08:55:19;2.60;;;1.17;;
49061;SDS011;34873;49.142;9.118;2022-08-01T08:57:45;2.50;;;1.00;;
49061;SDS011;34873;49.142;9.118;2022-08-01T09:00:13;4.10;;;1.30;;
49061;SDS011;34873;49.142;9.118;2022-08-01T09:02:42;4.07;;;1.30;;
49061;SDS011;34873;49.142;9.118;2022-08-01T09:05:08;4.45;;;1.42;;
49061;SDS011;34873;49.142;9.118;2022-08-01T09:07:33;1.83;;;1.05;;
49061;SDS011;34873;49.142;9.118;2022-08-01T09:09:59;1.95;;;1.02;;
49061;SDS011;34873;49.142;9.118;2022-08-01T09:12:24;1.77;;;1.10;;
49061;SDS011;34873;49.142;9.118;2022-08-01T09:14:50;2.00;;;1.27;;
49061;SDS011;34873;49.142;9.118;2022-08-01T09:17:18;1.55;;;0.80;;
49061;SDS011;34873;49.142;9.118;2022-08-01T09:19:49;2.53;;;1.13;;
49061;SDS011;34873;49.142;9.118;2022-08-01T09:22:17;1.83;;;0.98;;
49061;SDS011;34873;49.142;9.118;2022-08-01T09:27:30;4.00;;;1.38;;
49061;SDS011;34873;49.142;9.118;2022-08-01T09:30:06;4.25;;;1.67;;
49061;SDS011;34873;49.142;9.118;2022-08-01T09:35:28;3.35;;;1.10;;
49061;SDS011;34873;49.142;9.118;2022-08-01T09:40:49;1.85;;;1.30;;
49061;SDS011;34873;49.142;9.118;2022-08-01T09:43:19;1.38;;;1.10;;
49061;SDS011;34873;49.142;9.118;2022-08-01T09:45:48;3.63;;;1.40;;
49061;SDS011;34873;49.142;9.118;2022-08-01T09:48:16;2.45;;;1.10;;
49061;SDS011;34873;49.142;9.118;2022-08-01T09:50:46;2.25;;;1.30;;
49061;SDS011;34873;49.142;9.118;2022-08-01T09:53:13;3.80;;;1.42;;
49061;SDS011;34873;49.142;9.118;2022-08-01T09:55:39;1.48;;;1.13;;
49061;SDS011;34873;49.142;9.118;2022-08-01T09:58:06;2.28;;;1.13;;
49061;SDS011;34873;49.142;9.118;2022-08-01T10:00:35;1.23;;;0.88;;
49061;SDS011;34873;49.142;9.118;2022-08-01T10:03:18;2.13;;;1.23;;
49061;SDS011;34873;49.142;9.118;2022-08-01T10:05:49;1.95;;;1.13;;
49061;SDS011;34873;49.142;9.118;2022-08-01T10:08:19;1.48;;;0.88;;
49061;SDS011;34873;49.142;9.118;2022-08-01T10:11:09;2.70;;;1.08;;
49061;SDS011;34873;49.142;9.118;2022-08-01T10:13:36;2.00;;;1.10;;
49061;SDS011;34873;49.142;9.118;2022-08-01T10:16:02;1.80;;;1.00;;
49061;SDS011;34873;49.142;9.118;2022-08-01T10:18:28;2.83;;;1.00;;
49061;SDS011;34873;49.142;9.118;2022-08-01T10:20:56;1.45;;;0.98;;
49061;SDS011;34873;49.142;9.118;2022-08-01T10:23:26;2.88;;;1.30;;
49061;SDS011;34873;49.142;9.118;2022-08-01T10:25:53;3.55;;;1.23;;
49061;SDS011;34873;49.142;9.118;2022-08-01T10:28:21;2.78;;;1.08;;
49061;SDS011;34873;49.142;9.118;2022-08-01T10:30:50;1.80;;;1.20;;
49061;SDS011;34873;49.142;9.118;2022-08-01T10:33:21;1.90;;;1.15;;
49061;SDS011;34873;49.142;9.118;2022-08-01T10:35:47;1.05;;;0.98;;
49061;SDS011;34873;49.142;9.118;2022-08-01T10:38:12;2.65;;;1.00;;
49061;SDS011;34873;49.142;9.118;2022-08-01T10:40:38;1.83;;;1.15;;
49061;SDS011;34873;49.142;9.118;2022-08-01T10:43:07;2.55;;;1.23;;
49061;SDS011;34873;49.142;9.118;2022-08-01T10:45:34;2.08;;;0.90;;
49061;SDS011;34873;49.142;9.118;2022-08-01T10:48:18;1.25;;;0.90;;
49061;SDS011;34873;49.142;9.118;2022-08-01T10:50:48;2.20;;;1.10;;
49061;SDS011;34873;49.142;9.118;2022-08-01T10:53:16;2.25;;;0.93;;
49061;SDS011;34873;49.142;9.118;2022-08-01T10:58:24;2.97;;;1.15;;
49061;SDS011;34873;49.142;9.118;2022-08-01T11:01:22;2.67;;;1.10;;
49061;SDS011;34873;49.142;9.118;2022-08-01T11:06:20;2.53;;;1.20;;
49061;SDS011;34873;49.142;9.118;2022-08-01T11:08:53;1.85;;;1.20;;
49061;SDS011;34873;49.142;9.118;2022-08-01T11:11:19;1.48;;;1.38;;
49061;SDS011;34873;49.142;9.118;2022-08-01T11:14:01;2.05;;;1.25;;
49061;SDS011;34873;49.142;9.118;2022-08-01T11:16:32;1.00;;;0.90;;
49061;SDS011;34873;49.142;9.118;2022-08-01T11:19:04;1.48;;;0.82;;
49061;SDS011;34873;49.142;9.118;2022-08-01T11:27:17;1.88;;;1.00;;
49061;SDS011;34873;49.142;9.118;2022-08-01T11:32:33;1.38;;;1.27;;
49061;SDS011;34873;49.142;9.118;2022-08-01T11:35:00;1.92;;;1.05;;
49061;SDS011;34873;49.142;9.118;2022-08-01T11:37:26;2.38;;;1.15;;
49061;SDS011;34873;49.142;9.118;2022-08-01T11:45:53;2.85;;;0.90;;
49061;SDS011;34873;49.142;9.118;2022-08-01T11:50:46;2.28;;;1.33;;
49061;SDS011;34873;49.142;9.118;2022-08-01T11:53:12;1.25;;;1.00;;
49061;SDS011;34873;49.142;9.118;2022-08-01T11:55:45;1.30;;;1.13;;
49061;SDS011;34873;49.142;9.118;2022-08-01T11:58:20;2.43;;;1.00;;
49061;SDS011;34873;49.142;9.118;2022-08-01T12:00:53;3.03;;;1.13;;
49061;SDS011;34873;49.142;9.118;2022-08-01T12:03:29;2.25;;;0.80;;
49061;SDS011;34873;49.142;9.118;2022-08-01T12:05:57;0.93;;;0.80;;
49061;SDS011;34873;49.142;9.118;2022-08-01T12:08:26;1.70;;;1.05;;
49061;SDS011;34873;49.142;9.118;2022-08-01T12:10:55;1.33;;;0.80;;
49061;SDS011;34873;49.142;9.118;2022-08-01T12:13:20;1.10;;;0.85;;
49061;SDS011;34873;49.142;9.118;2022-08-01T12:15:46;2.80;;;0.77;;
49061;SDS011;34873;49.142;9.118;2022-08-01T12:18:13;1.20;;;0.80;;
49061;SDS011;34873;49.142;9.118;2022-08-01T12:20:39;1.70;;;1.08;;
49061;SDS011;34873;49.142;9.118;2022-08-01T12:23:11;2.50;;;1.10;;
49061;SDS011;34873;49.142;9.118;2022-08-01T12:25:38;1.33;;;0.60;;
49061;SDS011;34873;49.142;9.118;2022-08-01T12:28:09;2.38;;;0.80;;
49061;SDS011;34873;49.142;9.118;2022-08-01T12:30:35;1.45;;;1.00;;
49061;SDS011;34873;49.142;9.118;2022-08-01T12:33:04;1.85;;;1.00;;
49061;SDS011;34873;49.142;9.118;2022-08-01T12:35:31;1.60;;;0.80;;
49061;SDS011;34873;49.142;9.118;2022-08-01T12:38:01;1.35;;;1.00;;
49061;SDS011;34873;49.142;9.118;2022-08-01T12:40:30;2.45;;;1.10;;
49061;SDS011;34873;49.142;9.118;2022-08-01T12:43:01;0.73;;;0.70;;
49061;SDS011;34873;49.142;9.118;2022-08-01T12:45:33;1.13;;;0.98;;
49061;SDS011;34873;49.142;9.118;2022-08-01T12:48:05;1.10;;;1.10;;
49061;SDS011;34873;49.142;9.118;2022-08-01T12:50:32;1.33;;;1.10;;
49061;SDS011;34873;49.142;9.118;2022-08-01T12:53:00;2.10;;;1.02;;
49061;SDS011;34873;49.142;9.118;2022-08-01T12:55:27;1.30;;;0.90;;
49061;SDS011;34873;49.142;9.118;2022-08-01T12:58:11;2.13;;;1.25;;
49061;SDS011;34873;49.142;9.118;2022-08-01T13:00:41;1.48;;;0.82;;
49061;SDS011;34873;49.142;9.118;2022-08-01T13:08:22;1.48;;;0.90;;
49061;SDS011;34873;49.142;9.118;2022-08-01T13:10:48;2.05;;;0.68;;
49061;SDS011;34873;49.142;9.118;2022-08-01T13:13:15;1.60;;;0.95;;
49061;SDS011;34873;49.142;9.118;2022-08-01T13:15:42;1.55;;;1.00;;
49061;SDS011;34873;49.142;9.118;2022-08-01T13:23:32;1.55;;;0.90;;
49061;SDS011;34873;49.142;9.118;2022-08-01T13:25:57;2.03;;;1.27;;
49061;SDS011;34873;49.142;9.118;2022-08-01T13:28:26;1.58;;;1.13;;
49061;SDS011;34873;49.142;9.118;2022-08-01T13:31:02;2.15;;;0.70;;
49061;SDS011;34873;49.142;9.118;2022-08-01T13:36:06;1.77;;;0.80;;
49061;SDS011;34873;49.142;9.118;2022-08-01T13:38:34;0.88;;;0.60;;
49061;SDS011;34873;49.142;9.118;2022-08-01T13:41:18;1.07;;;0.80;;
49061;SDS011;34873;49.142;9.118;2022-08-01T13:43:44;0.85;;;0.80;;
49061;SDS011;34873;49.142;9.118;2022-08-01T13:46:11;1.67;;;0.70;;
49061;SDS011;34873;49.142;9.118;2022-08-01T13:48:37;1.05;;;0.90;;
49061;SDS011;34873;49.142;9.118;2022-08-01T13:51:07;1.05;;;0.73;;
49061;SDS011;34873;49.142;9.118;2022-08-01T13:53:33;1.08;;;0.98;;
49061;SDS011;34873;49.142;9.118;2022-08-01T13:56:01;0.82;;;0.82;;
49061;SDS011;34873;49.142;9.118;2022-08-01T13:58:26;1.20;;;0.80;;
49061;SDS011;34873;49.142;9.118;2022-08-01T14:00:53;1.30;;;0.90;;
49061;SDS011;34873;49.142;9.118;2022-08-01T14:03:19;1.95;;;0.95;;
49061;SDS011;34873;49.142;9.118;2022-08-01T14:05:47;1.70;;;1.02;;
49061;SDS011;34873;49.142;9.118;2022-08-01T14:08:15;2.13;;;1.00;;
49061;SDS011;34873;49.142;9.118;2022-08-01T14:10:43;1.23;;;1.15;;
49061;SDS011;34873;49.142;9.118;2022-08-01T14:13:08;0.60;;;0.60;;
49061;SDS011;34873;49.142;9.118;2022-08-01T14:15:34;0.95;;;0.80;;
49061;SDS011;34873;49.142;9.118;2022-08-01T14:18:02;0.80;;;0.80;;
49061;SDS011;34873;49.142;9.118;2022-08-01T14:20:28;1.17;;;0.95;;
49061;SDS011;34873;49.142;9.118;2022-08-01T14:22:53;1.10;;;0.82;;
49061;SDS011;34873;49.142;9.118;2022-08-01T14:25:19;1.15;;;1.05;;
49061;SDS011;34873;49.142;9.118;2022-08-01T14:27:47;1.45;;;1.00;;
49061;SDS011;34873;49.142;9.118;2022-08-01T14:30:14;1.17;;;0.93;;
49061;SDS011;34873;49.142;9.118;2022-08-01T14:32:43;0.93;;;0.75;;
49061;SDS011;34873;49.142;9.118;2022-08-01T14:35:13;1.38;;;0.80;;
49061;SDS011;34873;49.142;9.118;2022-08-01T14:37:38;1.15;;;0.95;;
49061;SDS011;34873;49.142;9.118;2022-08-01T14:40:06;1.77;;;1.48;;
49061;SDS011;34873;49.142;9.118;2022-08-01T14:42:34;1.10;;;0.82;;
49061;SDS011;34873;49.142;9.118;2022-08-01T14:45:01;1.05;;;0.77;;
49061;SDS011;34873;49.142;9.118;2022-08-01T14:47:33;1.05;;;0.70;;
49061;SDS011;34873;49.142;9.118;2022-08-01T14:50:02;1.35;;;0.88;;
49061;SDS011;34873;49.142;9.118;2022-08-01T14:52:29;0.60;;;0.60;;
49061;SDS011;34873;49.142;9.118;2022-08-01T14:55:00;1.52;;;0.88;;
49061;SDS011;34873;49.142;9.118;2022-08-01T14:57:26;1.08;;;0.75;;
49061;SDS011;34873;49.142;9.118;2022-08-01T14:59:54;1.15;;;0.60;;
49061;SDS011;34873;49.142;9.118;2022-08-01T15:02:20;0.68;;;0.60;;
49061;SDS011;34873;49.142;9.118;2022-08-01T15:04:47;1.02;;;0.65;;
49061;SDS011;34873;49.142;9.118;2022-08-01T15:07:17;1.95;;;0.70;;
49061;SDS011;34873;49.142;9.118;2022-08-01T15:09:45;0.73;;;0.70;;
49061;SDS011;34873;49.142;9.118;2022-08-01T15:12:13;0.90;;;0.90;;
49061;SDS011;34873;49.142;9.118;2022-08-01T15:14:40;2.38;;;0.73;;
49061;SDS011;34873;49.142;9.118;2022-08-01T15:19:46;1.17;;;0.90;;
49061;SDS011;34873;49.142;9.118;2022-08-01T15:22:15;0.95;;;0.85;;
49061;SDS011;34873;49.142;9.118;2022-08-01T15:24:44;1.15;;;0.80;;
49061;SDS011;34873;49.142;9.118;2022-08-01T15:27:12;1.05;;;0.80;;
49061;SDS011;34873;49.142;9.118;2022-08-01T15:29:44;0.90;;;0.60;;
49061;SDS011;34873;49.142;9.118;2022-08-01T15:32:10;2.25;;;0.70;;
49061;SDS011;34873;49.142;9.118;2022-08-01T15:34:36;0.95;;;0.80;;
49061;SDS011;34873;49.142;9.118;2022-08-01T15:37:05;0.77;;;0.70;;
49061;SDS011;34873;49.142;9.118;2022-08-01T15:39:31;0.82;;;0.80;;
49061;SDS011;34873;49.142;9.118;2022-08-01T15:42:09;0.95;;;0.68;;
49061;SDS011;34873;49.142;9.118;2022-08-01T15:44:36;1.20;;;0.90;;
49061;SDS011;34873;49.142;9.118;2022-08-01T15:47:02;0.57;;;0.57;;